Brookfield, New York
Current Conditions -  °F | °C
As of 7:53 PM on Tuesday 25 Nov 2014 (Local Time) from KRME Reporting Station
Overcast Overcast  
Wind Chill: 33°   Ceiling: 7000
Heat Index: 40°   Visibility: 10mi
Dew Point: 29°   Wind: 10mph
Humidity: 65%   Direction: 300°WNW
Pressure: 30.1"   Gusts: NA
Location:  42.81°N, 75.31°W
Report Text: KRME 260053Z 30009KT 10SM OVC070 04/M02 A3010 RMK AO2 SLP194 T00441017
Loading
Personal Weather Stations






























Interactive Weather Map New forecast layout! Learn more

10-Day Weather Forecast

Advertisements
Track Severe Weather on mobile